createdAt,value
2022-12-31T00:01:28.427Z,35.68
2022-12-31T00:04:31.617Z,35.52
2022-12-31T00:10:41.761Z,35.74
2022-12-31T00:13:46.565Z,35.71
2022-12-31T00:16:49.674Z,35.63
2022-12-31T00:19:52.770Z,35.44
2022-12-31T00:22:57.202Z,35.70
2022-12-31T00:26:04.413Z,35.69
2022-12-31T00:29:07.540Z,35.34
2022-12-31T00:32:10.638Z,35.58
2022-12-31T00:35:13.707Z,35.52
2022-12-31T00:38:18.148Z,35.41
2022-12-31T00:41:22.447Z,35.29
2022-12-31T00:44:25.524Z,35.53
2022-12-31T00:47:28.494Z,35.53
2022-12-31T00:50:31.568Z,35.62
2022-12-31T00:53:36.448Z,35.25
2022-12-31T00:56:39.417Z,35.15
2022-12-31T00:59:42.530Z,35.25
2022-12-31T01:02:45.676Z,35.56
2022-12-31T01:05:50.466Z,35.43
2022-12-31T01:08:57.099Z,35.36
2022-12-31T01:12:00.120Z,35.39
2022-12-31T01:15:03.218Z,35.68
2022-12-31T01:18:07.550Z,35.31
2022-12-31T01:21:12.314Z,35.11
2022-12-31T01:24:18.028Z,35.08
2022-12-31T01:27:21.071Z,34.92
2022-12-31T01:30:24.224Z,35.40
2022-12-31T01:33:27.267Z,35.07
2022-12-31T01:36:32.929Z,35.45
2022-12-31T01:39:37.376Z,35.04
2022-12-31T01:42:40.395Z,35.19
2022-12-31T01:45:44.695Z,34.93
2022-12-31T01:48:51.058Z,35.20
2022-12-31T01:51:58.825Z,35.29
2022-12-31T01:55:16.226Z,34.93
2022-12-31T01:58:23.400Z,35.39
2022-12-31T02:01:29.826Z,34.90
2022-12-31T02:04:33.051Z,35.08
2022-12-31T02:07:36.064Z,35.07
2022-12-31T02:10:40.659Z,35.08
2022-12-31T02:13:43.831Z,35.18
2022-12-31T02:16:53.779Z,35.12
2022-12-31T02:20:32.965Z,35.19
2022-12-31T02:24:19.477Z,34.78
2022-12-31T02:27:38.974Z,35.19
2022-12-31T02:30:46.754Z,34.94
2022-12-31T02:33:55.894Z,34.58
2022-12-31T02:37:00.734Z,35.05
2022-12-31T02:40:04.299Z,34.85
2022-12-31T02:43:07.509Z,35.05
2022-12-31T02:46:21.603Z,34.91
2022-12-31T02:49:28.483Z,35.01
2022-12-31T02:52:43.773Z,34.93
2022-12-31T02:55:54.704Z,35.18
2022-12-31T02:59:21.870Z,34.86
2022-12-31T03:02:31.404Z,35.04
2022-12-31T03:05:38.793Z,34.54
2022-12-31T03:08:57.640Z,34.59
2022-12-31T03:12:19.367Z,35.00
2022-12-31T03:15:25.070Z,34.88
2022-12-31T03:18:57.107Z,34.80
2022-12-31T03:22:17.472Z,34.65
2022-12-31T03:25:36.144Z,35.05
2022-12-31T03:28:41.198Z,34.85
2022-12-31T03:31:44.307Z,34.89
2022-12-31T03:34:48.800Z,34.61
2022-12-31T03:37:52.831Z,34.70
2022-12-31T03:40:55.903Z,34.49
2022-12-31T03:43:58.948Z,34.54
2022-12-31T03:47:01.987Z,34.90
2022-12-31T03:50:08.335Z,34.77
2022-12-31T03:53:11.827Z,34.81
2022-12-31T03:56:14.818Z,34.39
2022-12-31T03:59:17.855Z,34.79
2022-12-31T04:02:26.304Z,34.95
2022-12-31T04:05:33.758Z,34.83
2022-12-31T04:08:36.831Z,34.51
2022-12-31T04:11:39.780Z,34.87
2022-12-31T04:14:42.845Z,34.79
2022-12-31T04:17:46.030Z,34.51
2022-12-31T04:20:50.713Z,34.52
2022-12-31T04:23:53.977Z,34.31
2022-12-31T04:27:00.776Z,34.43
2022-12-31T04:30:07.974Z,34.77
2022-12-31T04:33:10.957Z,34.45
2022-12-31T04:36:15.410Z,34.68
2022-12-31T04:39:18.497Z,34.58
2022-12-31T04:42:21.607Z,34.79
2022-12-31T04:45:24.693Z,34.54
2022-12-31T04:48:27.888Z,34.49
2022-12-31T04:51:32.876Z,34.66
2022-12-31T04:54:35.924Z,34.54
2022-12-31T04:57:38.974Z,34.26
2022-12-31T05:00:42.120Z,34.18
2022-12-31T05:03:45.153Z,34.57
2022-12-31T05:06:49.846Z,34.34
2022-12-31T05:09:52.913Z,34.45
2022-12-31T05:12:55.954Z,34.18
2022-12-31T05:15:58.962Z,34.46
2022-12-31T05:19:02.052Z,34.23
2022-12-31T05:22:23.952Z,34.18
2022-12-31T05:25:27.437Z,34.35
2022-12-31T05:28:30.499Z,34.04
2022-12-31T05:31:33.476Z,34.37
2022-12-31T05:34:36.461Z,34.19
2022-12-31T05:37:40.904Z,34.33
2022-12-31T05:40:43.938Z,33.97
2022-12-31T05:43:47.357Z,33.98
2022-12-31T05:46:50.482Z,34.04
2022-12-31T05:49:53.493Z,33.85
2022-12-31T05:52:58.137Z,33.75
2022-12-31T05:56:01.247Z,34.22
2022-12-31T05:59:04.311Z,34.05
2022-12-31T06:02:07.671Z,34.13
2022-12-31T06:05:11.045Z,33.90
2022-12-31T06:08:15.626Z,33.85
2022-12-31T06:11:18.709Z,34.13
2022-12-31T06:14:21.943Z,34.21
2022-12-31T06:17:26.102Z,33.97
2022-12-31T06:20:29.092Z,34.01
2022-12-31T06:23:33.666Z,34.07
2022-12-31T06:26:36.783Z,34.04
2022-12-31T06:29:39.781Z,34.04
2022-12-31T06:32:42.907Z,33.94
2022-12-31T06:35:45.922Z,33.81
2022-12-31T06:38:50.405Z,33.80
2022-12-31T06:41:53.473Z,34.05
2022-12-31T06:44:56.421Z,33.95
2022-12-31T06:47:59.586Z,33.95
2022-12-31T06:51:07.798Z,34.14
2022-12-31T06:54:15.435Z,34.19
2022-12-31T06:57:18.990Z,33.96
2022-12-31T07:00:23.213Z,34.33
2022-12-31T07:03:33.873Z,33.81
2022-12-31T07:06:44.182Z,33.51
2022-12-31T07:09:56.980Z,32.99
2022-12-31T07:13:13.104Z,33.14
2022-12-31T07:16:26.894Z,32.94
2022-12-31T07:19:41.316Z,32.79
2022-12-31T07:22:45.270Z,32.64
2022-12-31T07:26:08.612Z,32.55
2022-12-31T07:29:19.839Z,32.67
2022-12-31T07:32:34.498Z,33.39
2022-12-31T07:35:49.761Z,32.92
2022-12-31T07:38:58.332Z,33.11
2022-12-31T07:42:10.500Z,33.11
2022-12-31T07:45:21.712Z,33.06
2022-12-31T07:48:29.002Z,33.11
2022-12-31T07:51:32.522Z,33.15
2022-12-31T07:54:35.556Z,33.26
2022-12-31T07:57:50.689Z,33.43
2022-12-31T08:00:56.997Z,33.21
2022-12-31T08:04:04.902Z,33.08
2022-12-31T08:07:17.391Z,33.09
2022-12-31T08:10:27.253Z,33.49
2022-12-31T08:13:32.733Z,33.17
2022-12-31T08:16:36.387Z,33.73
2022-12-31T08:19:40.054Z,33.06
2022-12-31T08:23:15.458Z,33.22
2022-12-31T08:26:27.374Z,33.57
2022-12-31T08:29:40.758Z,33.19
2022-12-31T08:32:50.229Z,32.94
2022-12-31T08:36:07.854Z,33.61
2022-12-31T08:39:23.028Z,32.69
2022-12-31T08:42:33.643Z,33.05
2022-12-31T08:45:40.834Z,32.95
2022-12-31T08:48:44.983Z,32.72
2022-12-31T08:51:48.481Z,32.65
2022-12-31T08:54:52.083Z,32.77
2022-12-31T08:58:08.407Z,32.77
2022-12-31T09:01:19.098Z,32.69
2022-12-31T09:04:30.506Z,33.15
2022-12-31T09:07:41.115Z,32.57
2022-12-31T09:10:52.940Z,33.17
2022-12-31T09:14:21.356Z,33.08
2022-12-31T09:17:44.055Z,33.65
2022-12-31T09:20:47.518Z,33.84
2022-12-31T09:23:50.943Z,34.91
2022-12-31T09:27:05.682Z,34.58
2022-12-31T09:30:12.662Z,34.81
2022-12-31T09:33:31.369Z,34.92
2022-12-31T09:36:41.191Z,35.29
2022-12-31T09:39:46.319Z,34.79
2022-12-31T09:43:10.771Z,34.92
2022-12-31T09:47:06.080Z,34.25
2022-12-31T09:50:50.679Z,34.59
2022-12-31T09:54:25.842Z,34.02
2022-12-31T09:57:39.354Z,33.79
2022-12-31T10:00:49.558Z,33.79
2022-12-31T10:04:31.255Z,33.64
2022-12-31T10:07:52.806Z,34.12
2022-12-31T10:11:00.721Z,33.96
2022-12-31T10:14:29.821Z,33.80
2022-12-31T10:17:48.241Z,33.64
2022-12-31T10:21:04.923Z,33.76
2022-12-31T10:24:35.845Z,33.64
2022-12-31T10:27:52.855Z,33.78
2022-12-31T10:31:08.012Z,33.63
2022-12-31T10:34:17.561Z,33.58
2022-12-31T10:37:23.439Z,34.13
2022-12-31T10:40:45.565Z,33.56
2022-12-31T10:44:22.411Z,34.03
2022-12-31T10:47:57.191Z,34.28
2022-12-31T10:51:31.069Z,33.96
2022-12-31T10:54:59.242Z,34.65
2022-12-31T10:58:47.085Z,34.04
2022-12-31T11:02:02.653Z,34.44
2022-12-31T11:05:44.229Z,35.07
2022-12-31T11:09:40.490Z,35.07
2022-12-31T11:13:11.710Z,34.80
2022-12-31T11:16:32.624Z,35.43
2022-12-31T11:19:45.365Z,35.65
2022-12-31T11:22:59.860Z,36.06
2022-12-31T11:26:14.570Z,36.08
2022-12-31T11:29:38.129Z,35.57
2022-12-31T11:33:02.139Z,36.24
2022-12-31T11:36:18.087Z,35.91
2022-12-31T11:39:36.282Z,36.56
2022-12-31T11:42:47.432Z,35.94
2022-12-31T11:46:14.442Z,36.27
2022-12-31T11:49:34.543Z,35.91
2022-12-31T11:52:54.073Z,36.43
2022-12-31T11:56:11.051Z,36.20
2022-12-31T11:59:19.611Z,36.14
2022-12-31T12:02:27.622Z,36.32
2022-12-31T12:05:33.096Z,36.08
2022-12-31T12:08:36.954Z,35.82
2022-12-31T12:11:41.173Z,35.77
2022-12-31T12:14:47.019Z,36.07
2022-12-31T12:17:55.301Z,36.29
2022-12-31T12:21:12.258Z,36.47
2022-12-31T12:24:21.959Z,36.72
2022-12-31T12:27:31.914Z,36.45
2022-12-31T12:30:41.452Z,37.16
2022-12-31T12:33:47.761Z,37.35
2022-12-31T12:36:52.243Z,37.41
2022-12-31T12:40:01.051Z,37.49
2022-12-31T12:43:04.629Z,37.10
2022-12-31T12:46:19.675Z,37.41
2022-12-31T12:49:26.905Z,37.64
2022-12-31T12:52:46.874Z,37.59
2022-12-31T12:56:00.881Z,37.50
2022-12-31T12:59:27.776Z,37.39
2022-12-31T13:03:21.160Z,37.70
2022-12-31T13:06:38.099Z,38.17
2022-12-31T13:09:56.520Z,37.92
2022-12-31T13:13:23.883Z,38.09
2022-12-31T13:16:35.993Z,38.34
2022-12-31T13:19:46.303Z,37.87
2022-12-31T13:22:57.569Z,38.37
2022-12-31T13:26:08.713Z,38.31
2022-12-31T13:29:18.576Z,38.06
2022-12-31T13:32:26.315Z,38.77
2022-12-31T13:35:32.340Z,38.68
2022-12-31T13:38:39.955Z,38.53
2022-12-31T13:41:50.829Z,38.64
2022-12-31T13:45:00.556Z,38.49
2022-12-31T13:48:08.732Z,38.73
2022-12-31T13:51:17.381Z,38.69
2022-12-31T13:54:31.660Z,38.90
2022-12-31T13:57:44.945Z,38.73
2022-12-31T14:00:54.489Z,39.01
2022-12-31T14:04:05.880Z,38.42
2022-12-31T14:07:14.884Z,38.82
2022-12-31T14:10:21.875Z,38.19
2022-12-31T14:13:38.917Z,38.30
2022-12-31T14:16:49.715Z,38.25
2022-12-31T14:20:03.823Z,38.82
2022-12-31T14:23:19.266Z,38.87
2022-12-31T14:26:27.667Z,38.40
2022-12-31T14:29:36.643Z,38.74
2022-12-31T14:33:10.855Z,38.69
2022-12-31T14:36:27.423Z,38.39
2022-12-31T14:39:45.262Z,38.76
2022-12-31T14:43:05.636Z,38.28
2022-12-31T14:46:19.750Z,38.14
2022-12-31T14:49:38.161Z,38.19
2022-12-31T14:52:51.813Z,38.31
2022-12-31T14:55:59.728Z,38.31
2022-12-31T14:59:03.946Z,37.98
2022-12-31T15:02:29.350Z,38.80
2022-12-31T15:05:34.071Z,37.43
2022-12-31T15:08:47.890Z,37.15
2022-12-31T15:12:12.375Z,36.99
2022-12-31T15:15:33.420Z,35.90
2022-12-31T15:19:15.301Z,35.24
2022-12-31T15:22:37.625Z,34.91
2022-12-31T15:25:47.413Z,34.88
2022-12-31T15:28:59.533Z,34.36
2022-12-31T15:32:05.246Z,34.66
2022-12-31T15:35:30.800Z,34.44
2022-12-31T15:38:37.583Z,34.45
2022-12-31T15:42:10.468Z,33.85
2022-12-31T15:45:13.557Z,33.93
2022-12-31T15:48:22.200Z,34.41
2022-12-31T15:51:31.772Z,34.28
2022-12-31T15:54:39.613Z,34.03
2022-12-31T15:57:44.468Z,34.10
2022-12-31T16:01:02.581Z,33.49
2022-12-31T16:04:07.387Z,34.28
2022-12-31T16:07:13.518Z,34.53
2022-12-31T16:10:22.819Z,34.68
2022-12-31T16:13:28.480Z,34.80
2022-12-31T16:16:33.477Z,36.16
2022-12-31T16:19:54.282Z,36.89
2022-12-31T16:23:01.911Z,36.84
2022-12-31T16:26:05.517Z,37.93
2022-12-31T16:29:15.105Z,39.57
2022-12-31T16:32:20.001Z,39.81
2022-12-31T16:35:25.744Z,39.27
2022-12-31T16:38:35.603Z,39.43
2022-12-31T16:41:43.935Z,39.97
2022-12-31T16:44:47.416Z,39.89
2022-12-31T16:47:50.605Z,40.14
2022-12-31T16:50:56.894Z,39.78
2022-12-31T16:54:03.744Z,39.51
2022-12-31T16:57:10.980Z,39.13
2022-12-31T17:00:20.874Z,39.02
2022-12-31T17:03:26.494Z,38.86
2022-12-31T17:06:33.855Z,38.53
2022-12-31T17:09:39.838Z,38.80
2022-12-31T17:13:25.575Z,38.13
2022-12-31T17:16:10.297Z,38.19
2022-12-31T17:19:36.623Z,37.48
2022-12-31T17:22:44.265Z,37.56
2022-12-31T17:25:48.844Z,36.68
2022-12-31T17:28:55.415Z,37.26
2022-12-31T17:32:05.487Z,36.94
2022-12-31T17:35:29.351Z,36.82
2022-12-31T17:38:34.494Z,36.99
2022-12-31T17:41:39.466Z,36.89
2022-12-31T17:44:45.502Z,37.06
2022-12-31T17:47:51.200Z,37.33
2022-12-31T17:50:56.028Z,37.10
2022-12-31T17:54:01.469Z,37.58
2022-12-31T17:57:06.666Z,37.20
2022-12-31T18:00:19.213Z,37.30
2022-12-31T18:03:22.627Z,37.44
2022-12-31T18:06:26.763Z,37.36
2022-12-31T18:09:29.976Z,37.38
2022-12-31T18:12:34.719Z,37.09
2022-12-31T18:15:38.608Z,37.48
2022-12-31T18:18:45.519Z,37.28
2022-12-31T18:21:48.983Z,37.59
2022-12-31T18:24:54.688Z,36.77
2022-12-31T18:28:00.640Z,36.76
2022-12-31T18:31:04.450Z,36.84
2022-12-31T18:34:07.709Z,36.42
2022-12-31T18:37:18.028Z,36.92
2022-12-31T18:40:24.821Z,36.53
2022-12-31T18:43:29.608Z,36.56
2022-12-31T18:46:32.831Z,36.42
2022-12-31T18:49:36.177Z,36.49
2022-12-31T18:52:41.237Z,35.91
2022-12-31T18:55:49.183Z,35.62
2022-12-31T18:58:54.078Z,35.54
2022-12-31T19:01:57.739Z,35.41
2022-12-31T19:05:01.032Z,35.53
2022-12-31T19:08:04.429Z,35.60
2022-12-31T19:11:07.859Z,35.25
2022-12-31T19:14:16.343Z,35.04
2022-12-31T19:17:21.631Z,35.22
2022-12-31T19:20:25.008Z,35.12
2022-12-31T19:23:28.387Z,34.75
2022-12-31T19:26:31.613Z,34.68
2022-12-31T19:29:36.236Z,34.58
2022-12-31T19:32:39.651Z,34.98
2022-12-31T19:35:43.245Z,34.73
2022-12-31T19:38:46.991Z,34.95
2022-12-31T19:41:56.475Z,35.17
2022-12-31T19:45:06.973Z,35.66
2022-12-31T19:48:13.076Z,35.78
2022-12-31T19:51:19.081Z,34.91
2022-12-31T19:54:22.345Z,35.49
2022-12-31T19:57:25.459Z,35.74
2022-12-31T20:00:31.877Z,35.23
2022-12-31T20:03:35.615Z,35.56
2022-12-31T20:06:39.070Z,35.59
2022-12-31T20:09:42.467Z,35.83
2022-12-31T20:12:45.632Z,35.87
2022-12-31T20:15:50.223Z,35.71
2022-12-31T20:18:53.959Z,36.06
2022-12-31T20:21:57.496Z,36.28
2022-12-31T20:25:00.839Z,37.23
2022-12-31T20:28:04.318Z,37.56
2022-12-31T20:31:10.289Z,36.91
2022-12-31T20:34:13.766Z,36.90
2022-12-31T20:37:17.218Z,37.38
2022-12-31T20:40:20.495Z,37.35
2022-12-31T20:43:23.936Z,37.81
2022-12-31T20:46:30.923Z,37.84
2022-12-31T20:50:09.286Z,36.96
2022-12-31T20:52:57.816Z,37.58
2022-12-31T20:56:05.457Z,37.58
2022-12-31T20:59:10.232Z,37.33
2022-12-31T21:02:21.272Z,37.56
2022-12-31T21:05:25.664Z,37.62
2022-12-31T21:08:34.528Z,37.78
2022-12-31T21:11:55.872Z,37.90
2022-12-31T21:14:59.187Z,37.27
2022-12-31T21:18:04.069Z,37.67
2022-12-31T21:21:07.415Z,37.25
2022-12-31T21:24:10.939Z,37.59
2022-12-31T21:27:14.345Z,38.60
2022-12-31T21:30:19.323Z,38.48
2022-12-31T21:33:24.657Z,38.21
2022-12-31T21:36:27.912Z,38.30
2022-12-31T21:39:31.002Z,38.30
2022-12-31T21:42:34.490Z,39.08
2022-12-31T21:45:37.944Z,38.83
2022-12-31T21:48:42.657Z,38.72
2022-12-31T21:52:14.952Z,39.21
2022-12-31T21:55:35.410Z,38.86
2022-12-31T21:58:39.708Z,38.85
2022-12-31T22:02:00.582Z,38.80
2022-12-31T22:05:16.391Z,35.88
2022-12-31T22:08:24.352Z,34.13
2022-12-31T22:11:28.855Z,33.27
2022-12-31T22:14:31.857Z,33.52
2022-12-31T22:17:34.935Z,33.98
2022-12-31T22:20:41.498Z,33.39
2022-12-31T22:23:45.021Z,33.13
2022-12-31T22:26:48.514Z,32.86
2022-12-31T22:29:51.822Z,33.27
2022-12-31T22:32:55.079Z,33.08
2022-12-31T22:36:01.588Z,33.07
2022-12-31T22:39:05.053Z,33.00
2022-12-31T22:42:08.151Z,33.31
2022-12-31T22:45:12.255Z,33.25
2022-12-31T22:48:15.471Z,33.61
2022-12-31T22:51:20.742Z,33.33
2022-12-31T22:54:24.136Z,33.38
2022-12-31T22:57:27.497Z,33.70
2022-12-31T23:00:41.827Z,33.61
2022-12-31T23:03:45.498Z,33.96
2022-12-31T23:06:49.983Z,34.34
2022-12-31T23:10:10.402Z,34.48
2022-12-31T23:13:31.559Z,34.52
2022-12-31T23:16:52.080Z,34.55
2022-12-31T23:20:12.895Z,34.67
2022-12-31T23:23:17.961Z,34.36
2022-12-31T23:26:21.462Z,34.91
2022-12-31T23:29:24.895Z,35.01
2022-12-31T23:32:27.949Z,34.47
2022-12-31T23:35:31.191Z,34.78
2022-12-31T23:38:36.023Z,34.70
2022-12-31T23:41:39.349Z,35.02
2022-12-31T23:44:44.530Z,34.93
2022-12-31T23:47:47.927Z,34.69
2022-12-31T23:50:54.121Z,34.78
2022-12-31T23:53:59.400Z,34.89
2022-12-31T23:57:02.564Z,34.67
